Time;durP1;ratioP1;P1;durP2;ratioP2;P2;SDS_P1;SDS_P2;PMS_P1;PMS_P2;Temp;Humidity;BMP_temperature;BMP_pressure;BME280_temperature;BME280_humidity;BME280_pressure;Samples;Min_cycle;Max_cycle;Signal;HPM_P1;HPM_P2
2023/07/22 00:00:30;;;;;;;9.25;7.80;;;16.50;93.80;;;;;;6217744;23;20007;-95
2023/07/22 00:02:55;;;;;;;9.55;7.40;;;16.50;93.80;;;;;;6191932;23;20004;-95
2023/07/22 00:05:23;;;;;;;11.98;6.88;;;16.50;93.90;;;;;;6216965;23;20000;-95
2023/07/22 00:07:49;;;;;;;9.98;7.28;;;16.50;94.00;;;;;;6191829;23;20039;-96
2023/07/22 00:10:15;;;;;;;9.63;7.40;;;16.50;94.00;;;;;;6218381;23;20001;-96
2023/07/22 00:12:41;;;;;;;8.82;7.53;;;16.40;94.10;;;;;;6218063;23;20005;-95
2023/07/22 00:15:07;;;;;;;9.80;7.28;;;16.40;94.20;;;;;;6217377;23;20011;-95
2023/07/22 00:17:33;;;;;;;9.18;7.60;;;16.40;94.30;;;;;;6218287;23;20011;-94
2023/07/22 00:20:00;;;;;;;11.20;7.90;;;16.30;94.40;;;;;;6217992;23;20419;-95
2023/07/22 00:22:26;;;;;;;10.18;8.07;;;16.30;94.50;;;;;;6217448;23;20008;-95
2023/07/22 00:24:52;;;;;;;11.95;9.02;;;16.30;94.50;;;;;;6191136;23;20556;-96
2023/07/22 00:27:18;;;;;;;11.25;8.52;;;16.20;94.60;;;;;;6218314;23;20004;-95
2023/07/22 00:29:43;;;;;;;10.57;8.25;;;16.20;94.70;;;;;;6218442;23;20414;-95
2023/07/22 00:32:09;;;;;;;10.75;9.02;;;16.20;94.80;;;;;;6218112;23;20031;-96
2023/07/22 00:34:36;;;;;;;12.48;10.15;;;16.10;94.90;;;;;;6216868;23;20024;-95
2023/07/22 00:37:02;;;;;;;13.13;9.73;;;16.10;95.00;;;;;;6217444;23;20004;-95
2023/07/22 00:39:27;;;;;;;12.70;10.10;;;16.10;95.10;;;;;;6218097;23;20000;-95
2023/07/22 00:41:53;;;;;;;13.68;8.93;;;16.10;95.20;;;;;;6218903;23;20007;-94
2023/07/22 00:44:19;;;;;;;17.70;10.20;;;16.00;95.40;;;;;;6218726;23;20008;-96
2023/07/22 00:46:44;;;;;;;13.80;9.77;;;16.00;95.70;;;;;;6192127;23;20005;-95
2023/07/22 00:49:11;;;;;;;15.65;10.32;;;16.00;95.60;;;;;;6218881;23;20005;-94
2023/07/22 00:51:38;;;;;;;13.05;9.80;;;15.90;95.70;;;;;;6218601;23;20028;-95
2023/07/22 00:54:04;;;;;;;11.93;8.85;;;15.90;95.80;;;;;;6217686;23;20016;-94
2023/07/22 00:56:35;;;;;;;12.35;10.55;;;15.90;95.90;;;;;;6217564;23;19997;-95
2023/07/22 00:59:01;;;;;;;13.88;10.45;;;15.90;96.00;;;;;;6191931;23;20132;-96
2023/07/22 01:01:27;;;;;;;12.75;9.93;;;15.90;96.10;;;;;;6216895;23;20138;-94
2023/07/22 01:03:52;;;;;;;12.18;9.73;;;16.00;96.20;;;;;;6217142;23;20099;-95
2023/07/22 01:06:19;;;;;;;13.48;10.60;;;16.00;96.20;;;;;;6217151;23;20351;-93
2023/07/22 01:08:46;;;;;;;13.75;10.85;;;16.10;96.30;;;;;;6191352;23;20059;-96
2023/07/22 01:11:12;;;;;;;14.93;10.05;;;16.10;96.30;;;;;;6220353;23;20074;-96
2023/07/22 01:13:38;;;;;;;12.52;10.45;;;16.10;96.30;;;;;;6219914;23;20031;-96
2023/07/22 01:16:05;;;;;;;14.20;11.00;;;16.10;96.30;;;;;;6219065;23;20047;-95
2023/07/22 01:18:32;;;;;;;13.77;10.27;;;16.10;96.30;;;;;;6219602;23;20001;-95
2023/07/22 01:20:58;;;;;;;16.25;10.75;;;16.20;96.40;;;;;;6218860;23;20000;-95
2023/07/22 01:23:24;;;;;;;14.70;11.32;;;16.20;96.40;;;;;;6218001;23;20005;-95
2023/07/22 01:25:51;;;;;;;13.93;10.90;;;16.20;96.40;;;;;;6219343;23;20009;-96
2023/07/22 01:28:17;;;;;;;14.50;11.45;;;16.20;96.50;;;;;;6219479;23;20076;-96
2023/07/22 01:30:42;;;;;;;16.52;12.18;;;16.20;96.50;;;;;;6189530;23;19997;-95
2023/07/22 01:33:08;;;;;;;16.15;11.68;;;16.30;96.60;;;;;;6220021;23;20456;-96
2023/07/22 01:35:34;;;;;;;16.40;12.77;;;16.30;96.60;;;;;;6218376;23;20004;-96
2023/07/22 01:37:59;;;;;;;15.85;12.65;;;16.30;96.70;;;;;;6217764;23;20000;-95
2023/07/22 01:40:25;;;;;;;17.73;13.15;;;16.20;96.70;;;;;;6218635;23;20024;-95
2023/07/22 01:42:51;;;;;;;17.13;12.15;;;16.30;96.70;;;;;;6219570;23;20302;-96
2023/07/22 01:45:17;;;;;;;15.68;12.93;;;16.30;96.80;;;;;;6225925;23;20025;-94
2023/07/22 01:47:42;;;;;;;17.10;12.82;;;16.30;96.80;;;;;;6228297;23;19997;-96
2023/07/22 01:50:09;;;;;;;18.10;14.02;;;16.30;96.90;;;;;;6228177;23;20011;-94
2023/07/22 01:52:35;;;;;;;18.08;13.98;;;16.20;96.90;;;;;;6221192;23;20188;-94
2023/07/22 01:55:05;;;;;;;16.30;13.48;;;16.20;97.00;;;;;;6218392;23;20024;-96
2023/07/22 01:57:34;;;;;;;18.48;13.40;;;16.20;97.10;;;;;;6218001;23;20032;-94
2023/07/22 02:00:00;;;;;;;19.50;13.95;;;16.10;97.10;;;;;;6190211;23;20020;-94
2023/07/22 02:02:25;;;;;;;17.10;13.73;;;16.10;97.20;;;;;;6217679;23;20008;-94
2023/07/22 02:04:51;;;;;;;21.45;15.35;;;16.10;97.30;;;;;;6217096;23;20418;-95
2023/07/22 02:07:16;;;;;;;19.48;14.45;;;16.00;97.60;;;;;;6191436;23;20004;-96
2023/07/22 02:09:42;;;;;;;19.73;14.38;;;16.00;97.40;;;;;;6218064;23;20353;-95
2023/07/22 02:12:08;;;;;;;18.48;14.40;;;16.00;97.50;;;;;;6217013;23;20016;-94
2023/07/22 02:14:33;;;;;;;21.23;15.73;;;15.90;97.60;;;;;;6217327;23;20088;-94
2023/07/22 02:16:59;;;;;;;20.02;14.65;;;15.90;97.70;;;;;;6217505;23;20039;-95
2023/07/22 02:19:25;;;;;;;21.48;16.05;;;15.90;97.80;;;;;;6216860;23;20028;-94
2023/07/22 02:21:50;;;;;;;18.55;14.45;;;15.90;97.80;;;;;;6216829;23;20027;-95
2023/07/22 02:24:16;;;;;;;23.20;16.75;;;15.80;97.90;;;;;;6219139;23;20012;-95
2023/07/22 02:26:41;;;;;;;19.08;15.95;;;15.80;98.00;;;;;;6216604;23;20052;-94
2023/07/22 02:29:07;;;;;;;20.45;14.65;;;15.80;98.10;;;;;;6216966;23;20000;-94
2023/07/22 02:31:33;;;;;;;18.00;14.85;;;15.80;98.20;;;;;;6215687;23;20005;-96
2023/07/22 02:33:59;;;;;;;23.25;16.27;;;15.70;98.20;;;;;;6217485;23;20322;-95
2023/07/22 02:36:24;;;;;;;20.23;15.70;;;15.70;98.30;;;;;;6218361;23;20114;-94
2023/07/22 02:38:50;;;;;;;20.95;16.52;;;15.60;98.40;;;;;;6217477;23;20007;-95
2023/07/22 02:41:16;;;;;;;22.80;16.63;;;15.60;98.50;;;;;;6217806;23;19997;-95
2023/07/22 02:43:41;;;;;;;20.52;16.17;;;15.60;98.60;;;;;;6218949;23;20001;-94
2023/07/22 02:46:08;;;;;;;22.08;16.25;;;15.60;98.70;;;;;;6216608;23;20004;-94
2023/07/22 02:48:33;;;;;;;22.33;17.17;;;15.50;98.70;;;;;;6218043;23;20012;-96
2023/07/22 02:51:07;;;;;;;23.30;16.77;;;15.50;98.80;;;;;;6192456;23;20000;-94
2023/07/22 02:53:34;;;;;;;23.00;16.63;;;15.50;98.90;;;;;;6217211;23;20020;-94
2023/07/22 02:56:00;;;;;;;21.23;15.30;;;15.50;98.90;;;;;;6217259;23;20024;-95
2023/07/22 02:58:25;;;;;;;21.25;16.27;;;15.40;99.00;;;;;;6217678;23;20031;-95
2023/07/22 03:00:51;;;;;;;22.38;15.85;;;15.40;99.00;;;;;;6219132;23;20327;-94
2023/07/22 03:03:16;;;;;;;22.38;15.82;;;15.40;99.10;;;;;;6220144;23;20012;-96
2023/07/22 03:05:42;;;;;;;22.55;17.08;;;15.40;99.20;;;;;;6219985;23;20454;-95
2023/07/22 03:08:07;;;;;;;22.30;16.20;;;15.30;99.30;;;;;;6218055;23;20028;-94
2023/07/22 03:10:33;;;;;;;19.58;15.68;;;15.30;99.30;;;;;;6218037;23;19997;-95
2023/07/22 03:12:59;;;;;;;24.63;17.45;;;15.30;99.40;;;;;;6219258;23;19997;-93
2023/07/22 03:15:26;;;;;;;22.75;16.83;;;15.30;99.50;;;;;;6219279;23;20405;-94
2023/07/22 03:17:52;;;;;;;23.98;17.27;;;15.20;99.60;;;;;;6219483;23;20323;-95
2023/07/22 03:20:19;;;;;;;24.45;16.55;;;15.20;99.70;;;;;;6218886;23;20000;-94
2023/07/22 03:22:45;;;;;;;21.45;16.48;;;15.20;99.70;;;;;;6219312;23;20001;-96
2023/07/22 03:25:12;;;;;;;23.52;17.17;;;15.10;99.80;;;;;;6219316;23;20036;-95
2023/07/22 03:27:38;;;;;;;22.20;16.90;;;15.10;99.90;;;;;;6218058;23;20662;-93
2023/07/22 03:30:10;;;;;;;25.45;17.02;;;15.10;99.90;;;;;;6220497;23;20011;-96
2023/07/22 03:32:36;;;;;;;25.95;18.25;;;15.10;99.90;;;;;;6222211;23;19997;-96
2023/07/22 03:35:02;;;;;;;24.38;17.58;;;15.00;99.90;;;;;;6228249;23;20031;-95
2023/07/22 03:37:28;;;;;;;23.27;17.83;;;15.00;99.90;;;;;;6201778;23;20008;-95
2023/07/22 03:39:54;;;;;;;26.23;17.73;;;15.00;99.90;;;;;;6228393;23;19996;-95
2023/07/22 03:42:20;;;;;;;27.25;18.77;;;15.00;99.90;;;;;;6225880;23;19997;-94
2023/07/22 03:44:45;;;;;;;24.50;17.10;;;15.00;99.90;;;;;;6225265;23;20070;-95
2023/07/22 03:47:11;;;;;;;24.48;17.50;;;15.00;99.90;;;;;;6221176;23;20028;-96
2023/07/22 03:49:36;;;;;;;21.20;16.10;;;15.00;99.90;;;;;;6219196;23;20068;-96
2023/07/22 03:52:02;;;;;;;25.50;16.98;;;15.00;99.90;;;;;;6218545;23;20392;-94
2023/07/22 03:54:28;;;;;;;22.60;15.75;;;15.00;99.90;;;;;;6219167;23;20008;-95
2023/07/22 03:56:53;;;;;;;23.02;16.20;;;15.00;99.90;;;;;;6218999;23;20016;-96
2023/07/22 03:59:19;;;;;;;19.85;15.52;;;15.00;99.90;;;;;;6192741;23;20055;-96
2023/07/22 04:01:45;;;;;;;24.77;17.63;;;15.00;99.90;;;;;;6192704;23;20004;-95
2023/07/22 04:04:11;;;;;;;25.30;17.92;;;15.00;99.90;;;;;;6219175;23;19996;-95
2023/07/22 04:06:37;;;;;;;24.67;16.80;;;15.00;99.90;;;;;;6218253;23;20001;-95
2023/07/22 04:09:02;;;;;;;30.65;17.92;;;15.00;99.90;;;;;;6219257;23;20039;-95
2023/07/22 04:11:28;;;;;;;23.02;16.38;;;15.00;99.90;;;;;;6191555;23;20000;-95
2023/07/22 04:13:53;;;;;;;27.88;16.67;;;15.00;99.90;;;;;;6219476;23;20005;-94
2023/07/22 04:16:19;;;;;;;24.17;16.02;;;15.00;99.90;;;;;;6220105;23;20005;-95
2023/07/22 04:18:44;;;;;;;26.88;18.60;;;15.00;99.90;;;;;;6231976;23;20020;-95
2023/07/22 04:21:10;;;;;;;28.05;18.15;;;15.00;99.90;;;;;;6231365;23;20000;-96
2023/07/22 04:23:36;;;;;;;25.35;17.65;;;15.00;99.90;;;;;;6228932;23;20012;-95
2023/07/22 04:26:07;;;;;;;27.95;17.15;;;15.00;99.90;;;;;;6227761;23;20009;-96
2023/07/22 04:28:34;;;;;;;25.88;17.50;;;15.00;99.90;;;;;;6225734;23;20007;-95
2023/07/22 04:31:00;;;;;;;24.33;16.00;;;15.00;99.90;;;;;;6220232;23;20012;-96
2023/07/22 04:33:26;;;;;;;26.02;16.58;;;15.10;99.90;;;;;;6221548;23;19996;-96
2023/07/22 04:35:55;;;;;;;25.63;16.92;;;15.10;99.90;;;;;;6220078;23;20140;-94
2023/07/22 04:38:21;;;;;;;25.02;17.10;;;15.20;99.90;;;;;;6194182;23;20389;-93
2023/07/22 04:40:46;;;;;;;26.83;18.35;;;15.20;99.90;;;;;;6222613;23;20021;-95
2023/07/22 04:43:12;;;;;;;26.08;16.90;;;15.20;99.90;;;;;;6220268;23;20036;-94
2023/07/22 04:45:40;;;;;;;25.05;18.33;;;15.30;99.90;;;;;;6219190;23;20008;-95
2023/07/22 04:48:06;;;;;;;23.92;17.60;;;15.30;99.90;;;;;;6192431;23;20434;-93
2023/07/22 04:50:32;;;;;;;26.70;17.65;;;15.40;99.90;;;;;;6219610;23;20011;-95
2023/07/22 04:52:57;;;;;;;27.33;17.45;;;15.40;99.90;;;;;;6218124;23;20403;-95
2023/07/22 04:55:23;;;;;;;31.73;18.02;;;15.50;99.90;;;;;;6218098;23;20004;-95
2023/07/22 04:57:51;;;;;;;25.08;18.20;;;15.50;99.90;;;;;;6219806;23;20079;-93
2023/07/22 05:00:18;;;;;;;28.42;17.80;;;15.60;99.90;;;;;;6192685;23;20008;-95
2023/07/22 05:02:45;;;;;;;28.05;18.17;;;15.70;99.90;;;;;;6218239;23;20008;-94
2023/07/22 05:05:11;;;;;;;25.02;18.42;;;15.70;99.90;;;;;;6218873;23;20020;-95
2023/07/22 05:07:37;;;;;;;27.85;19.20;;;15.80;99.90;;;;;;6218288;23;20031;-95
2023/07/22 05:10:03;;;;;;;24.55;17.73;;;15.80;99.90;;;;;;6218218;23;20000;-95
2023/07/22 05:12:28;;;;;;;24.20;17.75;;;15.90;99.90;;;;;;6218507;23;20322;-95
2023/07/22 05:14:54;;;;;;;28.45;17.88;;;16.00;99.90;;;;;;6218647;23;20017;-93
2023/07/22 05:17:19;;;;;;;27.38;18.42;;;16.10;99.90;;;;;;6217658;23;20015;-93
2023/07/22 05:19:45;;;;;;;25.55;18.13;;;16.10;99.90;;;;;;6218216;23;20007;-94
2023/07/22 05:22:11;;;;;;;26.30;17.65;;;16.10;99.90;;;;;;6217734;23;20004;-94
2023/07/22 05:24:36;;;;;;;26.63;17.83;;;16.10;99.90;;;;;;6218644;23;20004;-93
2023/07/22 05:27:02;;;;;;;23.88;19.05;;;16.20;99.90;;;;;;6217615;23;20024;-95
2023/07/22 05:29:27;;;;;;;24.95;18.33;;;16.20;99.90;;;;;;6217567;23;20062;-94
2023/07/22 05:31:53;;;;;;;23.27;18.23;;;16.30;99.90;;;;;;6218945;23;20462;-95
2023/07/22 05:34:19;;;;;;;24.90;17.73;;;16.30;99.90;;;;;;6218591;23;19996;-95
2023/07/22 05:36:44;;;;;;;27.50;18.17;;;16.40;99.90;;;;;;6217289;23;20011;-94
2023/07/22 05:39:10;;;;;;;25.42;18.70;;;16.50;99.90;;;;;;6219491;23;20304;-94
2023/07/22 05:41:36;;;;;;;25.50;19.00;;;16.60;99.90;;;;;;6195370;23;20017;-95
2023/07/22 05:44:02;;;;;;;26.38;19.17;;;16.70;99.90;;;;;;6223976;22;20008;-95
2023/07/22 05:46:27;;;;;;;30.30;20.33;;;16.80;99.90;;;;;;6222503;23;20012;-94
2023/07/22 05:48:53;;;;;;;28.73;20.80;;;16.90;99.90;;;;;;6220208;23;20063;-95
2023/07/22 05:51:18;;;;;;;23.58;19.27;;;17.00;99.90;;;;;;6221193;23;20015;-93
2023/07/22 05:53:44;;;;;;;24.27;18.25;;;17.10;99.90;;;;;;6216851;23;20016;-95
2023/07/22 05:56:10;;;;;;;27.92;20.60;;;17.10;99.90;;;;;;6219674;23;20043;-93
2023/07/22 05:58:36;;;;;;;25.75;19.73;;;17.20;99.90;;;;;;6218076;23;20000;-94
2023/07/22 06:01:02;;;;;;;23.92;16.45;;;17.20;99.90;;;;;;6218884;23;20072;-94
2023/07/22 06:03:27;;;;;;;23.40;16.67;;;17.30;99.90;;;;;;6218323;23;20411;-94
2023/07/22 06:05:53;;;;;;;27.63;18.83;;;17.30;99.90;;;;;;6216855;23;19997;-93
2023/07/22 06:08:19;;;;;;;25.42;18.90;;;17.40;99.90;;;;;;6217108;23;19996;-94
2023/07/22 06:10:45;;;;;;;29.77;19.98;;;17.60;99.90;;;;;;6189854;23;20040;-95
2023/07/22 06:13:10;;;;;;;24.23;18.35;;;17.80;99.70;;;;;;6221010;23;20007;-93
2023/07/22 06:15:36;;;;;;;25.50;18.95;;;17.90;99.50;;;;;;6217935;23;20015;-93
2023/07/22 06:18:02;;;;;;;21.95;16.75;;;18.10;99.30;;;;;;6222241;23;20004;-94
2023/07/22 06:20:28;;;;;;;20.65;17.52;;;18.10;99.00;;;;;;6220083;23;20008;-96
2023/07/22 06:22:54;;;;;;;23.80;17.25;;;18.10;98.90;;;;;;6219944;23;20036;-94
2023/07/22 06:25:20;;;;;;;26.77;19.20;;;18.20;98.80;;;;;;6218713;23;20008;-95
2023/07/22 06:27:46;;;;;;;22.15;17.77;;;18.20;98.70;;;;;;6218751;23;20005;-94
2023/07/22 06:30:12;;;;;;;25.70;18.42;;;18.20;98.60;;;;;;6217487;23;20003;-96
2023/07/22 06:32:38;;;;;;;28.38;18.55;;;18.20;98.50;;;;;;6218110;23;20000;-96
2023/07/22 06:35:04;;;;;;;25.77;18.08;;;18.30;98.50;;;;;;6219078;23;20040;-96
2023/07/22 06:37:30;;;;;;;25.50;17.35;;;18.40;98.40;;;;;;6219931;23;20008;-95
2023/07/22 06:39:56;;;;;;;24.05;17.58;;;18.40;98.20;;;;;;6218323;23;20348;-94
2023/07/22 06:42:21;;;;;;;26.05;17.38;;;18.50;98.20;;;;;;6219350;23;20016;-95
2023/07/22 06:44:47;;;;;;;22.20;17.45;;;18.50;98.00;;;;;;6224527;23;20011;-95
2023/07/22 06:47:13;;;;;;;25.35;19.00;;;18.70;98.10;;;;;;6233507;23;20031;-96
2023/07/22 06:49:40;;;;;;;24.80;17.77;;;18.80;98.00;;;;;;6222458;23;20330;-95
2023/07/22 06:52:06;;;;;;;21.35;16.45;;;18.80;97.80;;;;;;6191451;23;20015;-96
2023/07/22 06:54:32;;;;;;;22.30;17.38;;;18.90;97.70;;;;;;6219270;23;20006;-96
2023/07/22 06:56:57;;;;;;;19.23;15.52;;;18.90;97.60;;;;;;6219801;23;20025;-95
2023/07/22 06:59:23;;;;;;;22.13;16.48;;;19.00;97.50;;;;;;6219102;23;20004;-96
2023/07/22 07:01:48;;;;;;;21.60;15.70;;;19.00;97.40;;;;;;6230070;23;19997;-96
2023/07/22 07:04:14;;;;;;;22.45;16.58;;;19.10;97.30;;;;;;6229359;23;20004;-95
2023/07/22 07:06:40;;;;;;;18.80;13.88;;;19.20;97.30;;;;;;6226133;23;20007;-96
2023/07/22 07:09:06;;;;;;;25.08;16.60;;;19.20;97.20;;;;;;6224027;23;20000;-96
2023/07/22 07:11:31;;;;;;;22.35;16.08;;;19.20;97.20;;;;;;6221620;23;20032;-95
2023/07/22 07:13:57;;;;;;;26.45;16.48;;;19.10;97.10;;;;;;6220317;23;20001;-95
2023/07/22 07:16:28;;;;;;;21.45;15.88;;;19.10;97.10;;;;;;6194949;23;20005;-95
2023/07/22 07:18:55;;;;;;;20.42;14.88;;;19.20;97.10;;;;;;6213197;23;20008;-75
2023/07/22 07:21:21;;;;;;;24.42;18.15;;;19.20;97.10;;;;;;6211796;23;20002;-74
2023/07/22 07:23:48;;;;;;;19.33;14.25;;;19.20;97.20;;;;;;6212105;23;20067;-74
2023/07/22 07:26:14;;;;;;;24.45;17.15;;;19.30;97.00;;;;;;6211685;23;20000;-74
2023/07/22 07:28:39;;;;;;;26.02;17.20;;;19.40;97.00;;;;;;6212222;23;20081;-75
2023/07/22 07:31:05;;;;;;;23.65;15.95;;;19.50;96.90;;;;;;6212258;23;20025;-75
2023/07/22 07:33:31;;;;;;;18.80;14.48;;;19.60;96.80;;;;;;6212239;23;20487;-75
2023/07/22 07:35:57;;;;;;;21.25;15.13;;;19.80;96.70;;;;;;6211819;23;20009;-75
2023/07/22 07:38:22;;;;;;;20.85;14.15;;;20.00;96.50;;;;;;6211909;23;20071;-75
2023/07/22 07:40:56;;;;;;;16.33;14.40;;;20.20;96.20;;;;;;6211983;23;20441;-75
2023/07/22 07:43:22;;;;;;;16.90;13.68;;;20.30;95.80;;;;;;6211998;23;20444;-75
2023/07/22 07:45:47;;;;;;;18.77;14.90;;;20.30;95.70;;;;;;6211894;23;20015;-75
2023/07/22 07:48:13;;;;;;;15.30;12.73;;;20.40;95.70;;;;;;6211787;23;20001;-75
2023/07/22 07:50:39;;;;;;;16.10;14.20;;;20.40;95.50;;;;;;6211750;23;19997;-75
2023/07/22 07:53:04;;;;;;;14.77;11.40;;;20.50;95.30;;;;;;6211822;23;20020;-75
2023/07/22 07:55:30;;;;;;;15.15;12.40;;;20.50;95.30;;;;;;6212189;23;20410;-75
2023/07/22 07:57:55;;;;;;;15.45;12.23;;;20.60;95.20;;;;;;6211981;23;20000;-75
2023/07/22 08:00:21;;;;;;;15.68;12.98;;;20.80;95.20;;;;;;6211933;23;20474;-75
2023/07/22 08:02:47;;;;;;;12.85;11.35;;;21.00;94.90;;;;;;6211797;23;20012;-75
2023/07/22 08:05:13;;;;;;;16.77;13.60;;;21.10;94.80;;;;;;6211454;23;20005;-75
2023/07/22 08:07:39;;;;;;;15.32;11.68;;;21.20;94.40;;;;;;6212188;23;20410;-75
2023/07/22 08:10:07;;;;;;;11.63;10.35;;;21.30;94.20;;;;;;6211867;23;20008;-75
2023/07/22 08:12:33;;;;;;;14.75;11.27;;;21.30;94.20;;;;;;6212229;23;20293;-76
2023/07/22 08:14:59;;;;;;;14.85;12.32;;;21.40;94.10;;;;;;6212011;23;20406;-75
2023/07/22 08:17:24;;;;;;;15.75;12.32;;;21.40;93.90;;;;;;6211822;23;20414;-75
2023/07/22 08:19:50;;;;;;;12.45;10.43;;;21.50;93.50;;;;;;6211427;23;20000;-75
2023/07/22 08:22:16;;;;;;;12.07;10.75;;;21.40;93.20;;;;;;6211833;23;20013;-75
2023/07/22 08:24:41;;;;;;;10.93;9.77;;;21.50;93.20;;;;;;6211722;23;20076;-75
2023/07/22 08:27:07;;;;;;;14.10;11.85;;;21.60;93.00;;;;;;6185045;23;20422;-75
2023/07/22 08:29:33;;;;;;;12.27;11.07;;;21.70;92.70;;;;;;6211923;23;20441;-76
2023/07/22 08:31:58;;;;;;;14.32;11.77;;;21.80;92.70;;;;;;6211879;23;20323;-76
2023/07/22 08:34:24;;;;;;;13.88;11.20;;;21.80;92.40;;;;;;6210993;23;20307;-75
2023/07/22 08:36:49;;;;;;;14.48;10.73;;;21.90;92.30;;;;;;6211615;23;20001;-75
2023/07/22 08:39:15;;;;;;;11.73;10.50;;;21.90;92.30;;;;;;6211303;23;20000;-75
2023/07/22 08:41:47;;;;;;;15.48;11.40;;;22.00;92.00;;;;;;6211582;23;20429;-75
2023/07/22 08:44:15;;;;;;;11.68;10.48;;;22.00;92.00;;;;;;6211029;23;20296;-76
2023/07/22 08:46:42;;;;;;;15.15;12.15;;;22.10;92.00;;;;;;6211491;23;20043;-75
2023/07/22 08:49:09;;;;;;;13.68;11.77;;;22.20;91.90;;;;;;6210747;23;20283;-76
2023/07/22 08:51:37;;;;;;;18.10;13.00;;;22.30;91.80;;;;;;6211461;23;20379;-75
2023/07/22 08:54:03;;;;;;;14.50;11.68;;;22.30;91.80;;;;;;6211133;23;20036;-75
2023/07/22 08:56:29;;;;;;;13.20;11.65;;;22.40;91.70;;;;;;6211220;23;20303;-75
2023/07/22 08:58:55;;;;;;;11.82;10.23;;;22.40;91.50;;;;;;6211801;23;20001;-75
2023/07/22 09:01:22;;;;;;;12.85;10.07;;;22.50;91.50;;;;;;6211045;23;20079;-75
2023/07/22 09:03:52;;;;;;;13.15;10.60;;;22.50;91.20;;;;;;6211294;23;19997;-75
2023/07/22 09:06:19;;;;;;;12.23;10.32;;;22.50;91.00;;;;;;6210903;23;20087;-75
2023/07/22 09:08:45;;;;;;;12.85;9.95;;;22.50;90.90;;;;;;6211255;23;20024;-75
2023/07/22 09:11:11;;;;;;;12.55;10.18;;;22.60;90.90;;;;;;6211261;23;20001;-75
2023/07/22 09:13:39;;;;;;;13.07;10.45;;;22.60;90.80;;;;;;6211177;23;19996;-75
2023/07/22 09:16:06;;;;;;;11.82;10.13;;;22.60;90.70;;;;;;6210315;23;20014;-75
2023/07/22 09:18:34;;;;;;;10.80;9.38;;;22.60;90.40;;;;;;6211150;23;20016;-75
2023/07/22 09:20:59;;;;;;;12.95;9.77;;;22.60;90.10;;;;;;6211318;23;20000;-75
2023/07/22 09:23:36;;;;;;;11.23;8.00;;;22.60;90.00;;;;;;6183881;23;20367;-75
2023/07/22 09:26:12;;;;;;;9.55;8.00;;;22.60;90.00;;;;;;6210859;23;20330;-75
2023/07/22 09:28:52;;;;;;;8.35;6.40;;;22.60;89.60;;;;;;6210530;23;20000;-75
2023/07/22 09:31:18;;;;;;;11.45;7.25;;;22.60;89.20;;;;;;6210365;23;20004;-75
2023/07/22 09:33:44;;;;;;;10.50;6.78;;;22.50;88.60;;;;;;6210572;23;20004;-75
2023/07/22 09:36:11;;;;;;;7.03;5.50;;;22.50;88.80;;;;;;6210980;23;20071;-75
2023/07/22 09:38:36;;;;;;;7.28;5.80;;;22.50;88.60;;;;;;6210637;23;20005;-76
2023/07/22 09:41:02;;;;;;;7.53;5.70;;;22.60;88.60;;;;;;6210777;23;20005;-75
2023/07/22 09:43:30;;;;;;;8.20;6.47;;;22.60;88.00;;;;;;6211441;23;20008;-76
2023/07/22 09:45:55;;;;;;;10.95;6.65;;;22.70;87.70;;;;;;6183849;23;20502;-76
2023/07/22 09:48:25;;;;;;;8.25;6.32;;;22.80;87.40;;;;;;6210978;23;20050;-76
2023/07/22 09:50:57;;;;;;;6.20;4.95;;;22.90;87.10;;;;;;6211183;23;20000;-76
2023/07/22 09:53:23;;;;;;;6.50;5.70;;;23.10;86.50;;;;;;6198504;23;20354;-76
2023/07/22 09:55:52;;;;;;;7.25;5.55;;;23.30;86.50;;;;;;6210725;23;20004;-76
2023/07/22 09:58:18;;;;;;;7.75;5.63;;;23.40;86.10;;;;;;6210667;23;20065;-76
2023/07/22 10:00:48;;;;;;;8.95;5.40;;;23.50;85.90;;;;;;6210553;23;20079;-76
2023/07/22 10:03:15;;;;;;;6.93;5.65;;;23.60;85.30;;;;;;6211409;23;20066;-76
2023/07/22 10:05:42;;;;;;;8.50;6.07;;;23.70;84.90;;;;;;6211045;23;20016;-77
2023/07/22 10:08:10;;;;;;;6.72;4.43;;;23.80;84.00;;;;;;6211906;23;20044;-76
2023/07/22 10:10:38;;;;;;;7.53;4.88;;;23.80;83.90;;;;;;6213083;23;20075;-76
2023/07/22 10:13:04;;;;;;;11.95;6.28;;;23.90;83.80;;;;;;6212904;23;20083;-76
2023/07/22 10:15:33;;;;;;;10.50;6.53;;;23.90;83.50;;;;;;6212898;23;20005;-75
2023/07/22 10:18:00;;;;;;;6.80;5.43;;;23.90;83.20;;;;;;6213688;23;20000;-75
2023/07/22 10:20:26;;;;;;;8.63;6.18;;;23.90;83.40;;;;;;6213110;23;20005;-76
2023/07/22 10:22:52;;;;;;;7.65;5.50;;;23.90;82.80;;;;;;6213674;23;20317;-76
2023/07/22 10:25:19;;;;;;;9.45;5.50;;;24.00;82.60;;;;;;6213549;23;20334;-75
2023/07/22 10:27:45;;;;;;;8.90;5.68;;;24.00;82.40;;;;;;6213465;23;20012;-75
2023/07/22 10:30:15;;;;;;;8.40;5.88;;;24.00;82.60;;;;;;6212916;23;20001;-75
2023/07/22 10:32:49;;;;;;;7.38;5.40;;;24.20;82.00;;;;;;6213271;23;20004;-76
2023/07/22 10:35:31;;;;;;;8.55;5.60;;;24.20;81.70;;;;;;6213857;23;20354;-75
2023/07/22 10:38:12;;;;;;;6.88;4.88;;;24.20;81.40;;;;;;6213643;23;20122;-75
2023/07/22 10:40:45;;;;;;;5.85;4.07;;;24.30;81.40;;;;;;6213599;23;20020;-75
2023/07/22 10:43:11;;;;;;;9.05;5.13;;;24.30;81.30;;;;;;6212727;23;20327;-75
2023/07/22 10:45:42;;;;;;;6.50;5.32;;;24.30;80.70;;;;;;6213412;23;20004;-74
2023/07/22 10:48:09;;;;;;;7.68;4.85;;;24.30;80.70;;;;;;6213028;23;20003;-74
2023/07/22 10:50:40;;;;;;;6.13;4.60;;;24.30;80.40;;;;;;6213552;23;20079;-75
2023/07/22 10:53:09;;;;;;;5.50;4.78;;;24.40;79.80;;;;;;6213335;23;20082;-75
2023/07/22 10:56:03;;;;;;;8.15;4.03;;;24.30;79.70;;;;;;6213416;23;20012;-75
2023/07/22 10:58:45;;;;;;;5.65;3.83;;;24.40;79.30;;;;;;6212871;23;20434;-75
2023/07/22 11:01:29;;;;;;;4.90;3.90;;;24.30;79.70;;;;;;6185257;23;20028;-75
2023/07/22 11:04:05;;;;;;;;;;;24.20;79.60;;;;;;6213756;23;20002;-75
2023/07/22 11:06:31;;;;;;;28.33;8.35;;;24.00;79.80;;;;;;6213169;23;19904;-74
2023/07/22 11:08:56;;;;;;;12.15;5.97;;;23.80;79.40;;;;;;6213222;23;20000;-75
2023/07/22 11:11:39;;;;;;;6.60;4.93;;;23.60;79.30;;;;;;6212618;23;20020;-76
2023/07/22 11:14:21;;;;;;;6.43;4.13;;;23.50;79.40;;;;;;6212072;23;20084;-76
2023/07/22 11:16:47;;;;;;;5.95;3.30;;;23.30;79.90;;;;;;6213145;23;20216;-75
2023/07/22 11:19:14;;;;;;;8.40;3.88;;;23.10;80.40;;;;;;6212765;23;20562;-74
2023/07/22 11:21:41;;;;;;;6.28;4.40;;;22.90;80.50;;;;;;6213404;23;19997;-76
2023/07/22 11:24:07;;;;;;;6.00;4.13;;;22.80;80.40;;;;;;6213045;23;20373;-73
2023/07/22 11:26:33;;;;;;;5.80;3.95;;;22.70;80.60;;;;;;6212534;23;20012;-75
2023/07/22 11:29:04;;;;;;;4.28;3.72;;;22.60;80.90;;;;;;6212945;23;20027;-76
2023/07/22 11:31:32;;;;;;;5.65;3.85;;;22.50;81.20;;;;;;6186511;23;20334;-74
2023/07/22 11:33:58;;;;;;;4.63;4.07;;;22.40;81.60;;;;;;6212930;23;20023;-74
2023/07/22 11:36:26;;;;;;;4.22;3.42;;;22.40;82.00;;;;;;6212970;23;20009;-75
2023/07/22 11:38:52;;;;;;;5.85;3.25;;;22.40;82.50;;;;;;6212789;23;20036;-75
2023/07/22 11:41:18;;;;;;;5.25;3.80;;;22.40;82.50;;;;;;6212062;23;20005;-75
2023/07/22 11:43:43;;;;;;;4.95;3.47;;;22.40;82.50;;;;;;6212974;23;20071;-74
2023/07/22 11:46:09;;;;;;;5.28;3.00;;;22.50;82.60;;;;;;6212582;23;20004;-74
2023/07/22 11:48:35;;;;;;;3.97;3.00;;;22.60;82.40;;;;;;6213124;23;20004;-75
2023/07/22 11:51:01;;;;;;;4.75;3.30;;;22.70;82.10;;;;;;6186371;23;20005;-75
2023/07/22 11:53:28;;;;;;;3.80;2.72;;;22.70;81.80;;;;;;6212887;23;20012;-74
2023/07/22 11:55:55;;;;;;;3.80;3.00;;;22.70;82.10;;;;;;6212356;23;20009;-74
2023/07/22 11:58:28;;;;;;;5.28;2.80;;;22.70;82.10;;;;;;6185994;23;20008;-74
2023/07/22 12:01:06;;;;;;;3.33;2.22;;;22.60;82.00;;;;;;6212978;23;20004;-75
2023/07/22 12:03:33;;;;;;;4.28;2.75;;;22.60;81.80;;;;;;6212853;23;19996;-74
2023/07/22 12:06:05;;;;;;;4.13;2.10;;;22.50;82.40;;;;;;6212620;23;20402;-74
2023/07/22 12:08:31;;;;;;;4.10;2.22;;;22.60;82.50;;;;;;6212841;23;20012;-76
2023/07/22 12:10:58;;;;;;;4.90;2.47;;;22.80;82.80;;;;;;6185135;23;20326;-75
2023/07/22 12:13:23;;;;;;;4.70;2.03;;;23.00;82.50;;;;;;6212803;23;20440;-75
2023/07/22 12:16:05;;;;;;;3.30;2.22;;;23.30;81.80;;;;;;6212814;23;20024;-75
2023/07/22 12:18:47;;;;;;;4.85;2.33;;;23.60;80.40;;;;;;6212839;23;20075;-75
2023/07/22 12:21:14;;;;;;;5.80;2.40;;;23.80;80.00;;;;;;6212282;23;20478;-75
2023/07/22 12:23:39;;;;;;;4.28;2.60;;;23.90;79.80;;;;;;6212799;23;20035;-75
2023/07/22 12:26:05;;;;;;;4.50;2.28;;;23.90;79.10;;;;;;6211925;23;20013;-75
2023/07/22 12:28:32;;;;;;;3.28;2.00;;;23.80;78.60;;;;;;6212552;23;20007;-75
2023/07/22 12:30:57;;;;;;;2.35;1.75;;;23.60;78.40;;;;;;6212495;23;20418;-75